createdAt,value
2023-05-14T00:01:24.841Z,73.30
2023-05-14T00:03:51.334Z,73.53
2023-05-14T00:06:17.899Z,73.77
2023-05-14T00:08:44.305Z,73.85
2023-05-14T00:11:10.916Z,74.16
2023-05-14T00:13:37.549Z,74.18
2023-05-14T00:16:04.295Z,74.31
2023-05-14T00:18:30.877Z,74.77
2023-05-14T00:20:57.421Z,74.46
2023-05-14T00:23:24.066Z,74.70
2023-05-14T00:25:50.508Z,75.00
2023-05-14T00:28:16.952Z,75.01
2023-05-14T00:30:43.404Z,75.22
2023-05-14T00:33:09.894Z,75.72
2023-05-14T00:35:36.344Z,75.61
2023-05-14T00:38:03.431Z,75.91
2023-05-14T00:40:30.626Z,75.81
2023-05-14T00:42:57.264Z,75.87
2023-05-14T00:45:23.933Z,76.02
2023-05-14T00:47:51.136Z,75.93
2023-05-14T00:50:17.985Z,76.08
2023-05-14T00:52:45.004Z,76.31
2023-05-14T00:55:16.294Z,76.39
2023-05-14T00:57:43.022Z,76.59
2023-05-14T01:00:09.946Z,76.68
2023-05-14T01:02:36.504Z,76.65
2023-05-14T01:05:03.648Z,76.81
2023-05-14T01:08:02.023Z,76.73
2023-05-14T01:10:38.980Z,76.90
2023-05-14T01:13:24.691Z,77.26
2023-05-14T01:15:52.202Z,77.40
2023-05-14T01:18:19.613Z,77.75
2023-05-14T01:20:46.387Z,77.63
2023-05-14T01:23:12.772Z,77.79
2023-05-14T01:25:39.255Z,78.02
2023-05-14T01:28:11.430Z,77.97
2023-05-14T01:30:43.376Z,77.92
2023-05-14T01:33:16.318Z,78.23
2023-05-14T01:35:43.624Z,78.34
2023-05-14T01:38:13.937Z,78.36
2023-05-14T01:40:41.826Z,78.71
2023-05-14T01:43:08.735Z,78.82
2023-05-14T01:45:36.656Z,79.06
2023-05-14T01:48:04.989Z,79.17
2023-05-14T01:50:31.864Z,79.20
2023-05-14T01:52:58.437Z,79.24
2023-05-14T01:55:25.470Z,79.31
2023-05-14T01:57:52.729Z,79.32
2023-05-14T02:00:20.374Z,79.28
2023-05-14T02:02:46.828Z,79.45
2023-05-14T02:05:13.582Z,79.65
2023-05-14T02:07:40.314Z,79.64
2023-05-14T02:10:07.622Z,79.78
2023-05-14T02:12:34.094Z,79.55
2023-05-14T02:15:00.732Z,79.71
2023-05-14T02:17:27.246Z,79.37
2023-05-14T02:19:53.791Z,79.54
2023-05-14T02:22:20.283Z,79.72
2023-05-14T02:24:46.676Z,79.94
2023-05-14T02:27:13.456Z,80.21
2023-05-14T02:29:39.855Z,80.25
2023-05-14T02:32:06.637Z,80.21
2023-05-14T02:34:34.402Z,80.59
2023-05-14T02:37:01.090Z,80.40
2023-05-14T02:39:27.606Z,80.82
2023-05-14T02:41:53.978Z,80.54
2023-05-14T02:44:20.440Z,80.91
2023-05-14T02:46:47.456Z,80.83
2023-05-14T02:49:13.842Z,81.00
2023-05-14T02:51:40.373Z,80.94
2023-05-14T02:54:07.210Z,81.14
2023-05-14T02:56:33.603Z,81.27
2023-05-14T02:59:00.331Z,81.28
2023-05-14T03:01:27.124Z,81.50
2023-05-14T03:03:54.027Z,81.93
2023-05-14T03:06:20.504Z,81.73
2023-05-14T03:08:46.915Z,81.84
2023-05-14T03:11:13.445Z,81.84
2023-05-14T03:13:39.876Z,81.92
2023-05-14T03:16:06.581Z,82.15
2023-05-14T03:18:34.802Z,82.23
2023-05-14T03:21:01.418Z,82.32
2023-05-14T03:23:27.939Z,82.38
2023-05-14T03:25:54.375Z,82.52
2023-05-14T03:28:20.746Z,82.54
2023-05-14T03:30:47.294Z,82.68
2023-05-14T03:33:13.895Z,82.87
2023-05-14T03:35:40.340Z,82.94
2023-05-14T03:38:07.465Z,82.84
2023-05-14T03:40:34.018Z,82.96
2023-05-14T03:43:00.783Z,83.14
2023-05-14T03:45:28.663Z,83.06
2023-05-14T03:47:55.263Z,83.36
2023-05-14T03:50:22.005Z,83.54
2023-05-14T03:52:48.677Z,83.59
2023-05-14T03:55:15.025Z,83.47
2023-05-14T03:57:41.413Z,83.83
2023-05-14T04:00:08.715Z,83.80
2023-05-14T04:02:35.235Z,83.92
2023-05-14T04:05:01.703Z,83.97
2023-05-14T04:07:28.194Z,84.00
2023-05-14T04:09:54.560Z,83.95
2023-05-14T04:12:21.065Z,84.00
2023-05-14T04:14:47.542Z,83.95
2023-05-14T04:17:13.964Z,83.98
2023-05-14T04:19:40.539Z,84.01
2023-05-14T04:22:06.935Z,84.10
2023-05-14T04:24:33.393Z,83.97
2023-05-14T04:27:00.067Z,84.10
2023-05-14T04:29:26.533Z,84.03
2023-05-14T04:31:53.740Z,84.30
2023-05-14T04:34:20.265Z,84.12
2023-05-14T04:36:46.884Z,84.12
2023-05-14T04:39:13.301Z,84.02
2023-05-14T04:41:39.687Z,83.99
2023-05-14T04:44:06.937Z,83.90
2023-05-14T04:46:33.404Z,83.97
2023-05-14T04:48:59.864Z,83.68
2023-05-14T04:51:26.321Z,83.61
2023-05-14T04:53:52.703Z,83.44
2023-05-14T04:56:19.100Z,83.30
2023-05-14T04:58:45.498Z,83.21
2023-05-14T05:01:12.250Z,83.15
2023-05-14T05:03:38.739Z,83.36
2023-05-14T05:06:05.299Z,83.28
2023-05-14T05:08:31.839Z,83.03
2023-05-14T05:10:58.235Z,82.89
2023-05-14T05:13:24.734Z,82.98
2023-05-14T05:15:51.301Z,82.81
2023-05-14T05:18:17.818Z,82.87
2023-05-14T05:20:44.287Z,82.66
2023-05-14T05:23:10.924Z,82.71
2023-05-14T05:25:37.467Z,82.86
2023-05-14T05:28:04.096Z,82.54
2023-05-14T05:30:30.790Z,82.56
2023-05-14T05:32:57.680Z,82.65
2023-05-14T05:35:24.319Z,82.78
2023-05-14T05:37:50.947Z,82.58
2023-05-14T05:40:17.486Z,82.35
2023-05-14T05:42:43.875Z,82.37
2023-05-14T05:45:10.657Z,82.39
2023-05-14T05:47:37.178Z,82.07
2023-05-14T05:50:04.026Z,82.23
2023-05-14T05:52:30.709Z,82.05
2023-05-14T05:54:57.097Z,81.67
2023-05-14T05:57:26.201Z,82.00
2023-05-14T05:59:53.168Z,82.12
2023-05-14T06:02:19.988Z,81.67
2023-05-14T06:04:46.742Z,81.86
2023-05-14T06:07:13.122Z,81.92
2023-05-14T06:09:39.564Z,81.91
2023-05-14T06:12:06.385Z,80.95
2023-05-14T06:14:32.778Z,80.79
2023-05-14T06:16:59.257Z,80.98
2023-05-14T06:19:25.651Z,81.52
2023-05-14T06:21:52.007Z,80.13
2023-05-14T06:24:20.022Z,79.69
2023-05-14T06:26:46.512Z,79.51
2023-05-14T06:29:12.911Z,79.34
2023-05-14T06:31:39.555Z,79.21
2023-05-14T06:34:06.111Z,75.09
2023-05-14T06:36:32.503Z,74.68
2023-05-14T06:38:58.939Z,75.11
2023-05-14T06:41:26.169Z,76.27
2023-05-14T06:43:52.568Z,76.21
2023-05-14T06:46:18.970Z,76.15
2023-05-14T06:48:45.827Z,74.77
2023-05-14T06:51:13.285Z,73.11
2023-05-14T06:53:40.647Z,72.70
2023-05-14T06:56:07.796Z,71.46
2023-05-14T06:58:34.209Z,69.77
2023-05-14T07:01:00.738Z,69.72
2023-05-14T07:03:27.231Z,69.98
2023-05-14T07:05:53.647Z,68.68
2023-05-14T07:08:20.045Z,69.78
2023-05-14T07:10:46.457Z,70.23
2023-05-14T07:13:12.911Z,69.34
2023-05-14T07:15:39.349Z,69.42
2023-05-14T07:18:05.782Z,70.08
2023-05-14T07:20:32.212Z,68.63
2023-05-14T07:22:58.624Z,68.44
2023-05-14T07:25:25.091Z,68.60
2023-05-14T07:27:51.484Z,67.91
2023-05-14T07:30:18.305Z,67.29
2023-05-14T07:32:45.038Z,68.17
2023-05-14T07:35:11.837Z,67.16
2023-05-14T07:37:38.660Z,67.01
2023-05-14T07:40:05.652Z,66.96
2023-05-14T07:42:36.484Z,66.26
2023-05-14T07:45:04.668Z,66.45
2023-05-14T07:47:31.586Z,67.23
2023-05-14T07:49:59.670Z,66.68
2023-05-14T07:52:26.140Z,65.71
2023-05-14T07:54:52.895Z,66.55
2023-05-14T07:57:20.232Z,66.71
2023-05-14T07:59:47.864Z,65.80
2023-05-14T08:02:16.077Z,66.21
2023-05-14T08:04:42.592Z,66.12
2023-05-14T08:07:09.276Z,65.67
2023-05-14T08:09:35.848Z,64.71
2023-05-14T08:12:02.485Z,66.17
2023-05-14T08:14:28.857Z,65.79
2023-05-14T08:16:55.263Z,66.06
2023-05-14T08:19:21.817Z,65.85
2023-05-14T08:21:48.218Z,65.67
2023-05-14T08:24:15.033Z,66.01
2023-05-14T08:26:41.935Z,65.46
2023-05-14T08:29:10.015Z,64.86
2023-05-14T08:31:37.403Z,63.71
2023-05-14T08:34:03.817Z,63.20
2023-05-14T08:36:30.643Z,63.33
2023-05-14T08:38:57.123Z,63.26
2023-05-14T08:41:23.836Z,63.28
2023-05-14T08:44:14.082Z,63.13
2023-05-14T08:46:41.326Z,62.00
2023-05-14T08:49:42.658Z,61.76
2023-05-14T08:52:10.611Z,59.88
2023-05-14T08:54:37.308Z,57.81
2023-05-14T08:57:05.390Z,58.22
2023-05-14T08:59:31.812Z,58.64
2023-05-14T09:02:02.731Z,58.34
2023-05-14T09:04:31.592Z,58.89
2023-05-14T09:07:01.524Z,57.67
2023-05-14T09:09:28.536Z,58.59
2023-05-14T09:11:54.972Z,58.25
2023-05-14T09:14:23.870Z,57.19
2023-05-14T09:16:51.750Z,56.27
2023-05-14T09:19:19.600Z,57.02
2023-05-14T09:21:47.479Z,57.50
2023-05-14T09:24:21.471Z,57.23
2023-05-14T09:26:51.590Z,56.83
2023-05-14T09:29:18.287Z,56.35
2023-05-14T09:31:45.107Z,57.25
2023-05-14T09:34:12.213Z,56.69
2023-05-14T09:36:38.876Z,56.21
2023-05-14T09:39:05.808Z,56.53
2023-05-14T09:41:32.304Z,55.98
2023-05-14T09:43:58.758Z,56.26
2023-05-14T09:46:30.198Z,56.76
2023-05-14T09:48:56.988Z,55.97
2023-05-14T09:51:23.975Z,56.21
2023-05-14T09:53:53.227Z,56.19
2023-05-14T09:56:21.675Z,57.49
2023-05-14T09:58:48.621Z,57.45
2023-05-14T10:01:18.240Z,57.47
2023-05-14T10:03:45.026Z,57.46
2023-05-14T10:06:13.317Z,56.70
2023-05-14T10:08:43.825Z,57.56
2023-05-14T10:11:21.052Z,56.87
2023-05-14T10:13:57.039Z,56.82
2023-05-14T10:16:31.991Z,56.49
2023-05-14T10:19:08.009Z,55.90
2023-05-14T10:21:36.877Z,56.94
2023-05-14T10:24:07.638Z,56.26
2023-05-14T10:26:39.197Z,57.04
2023-05-14T10:29:06.430Z,56.73
2023-05-14T10:31:56.218Z,57.45
2023-05-14T10:34:32.595Z,56.83
2023-05-14T10:37:01.203Z,55.82
2023-05-14T10:39:52.293Z,55.31
2023-05-14T10:42:21.839Z,55.29
2023-05-14T10:44:55.462Z,53.66
2023-05-14T10:47:22.655Z,52.58
2023-05-14T10:49:49.490Z,53.64
2023-05-14T10:52:19.298Z,54.48
2023-05-14T10:54:56.411Z,53.82
2023-05-14T10:57:24.789Z,53.17
2023-05-14T10:59:57.112Z,53.85
2023-05-14T11:02:27.999Z,54.58
2023-05-14T11:05:15.727Z,53.83
2023-05-14T11:07:44.630Z,53.07
2023-05-14T11:10:18.942Z,53.12
2023-05-14T11:12:47.294Z,52.76
2023-05-14T11:15:26.031Z,53.19
2023-05-14T11:17:53.901Z,52.71
2023-05-14T11:20:21.285Z,51.33
2023-05-14T11:22:49.161Z,51.20
2023-05-14T11:25:15.812Z,51.73
2023-05-14T11:27:46.736Z,51.21
2023-05-14T11:30:18.397Z,51.67
2023-05-14T11:32:46.819Z,51.18
2023-05-14T11:35:14.037Z,49.85
2023-05-14T11:37:40.732Z,50.31
2023-05-14T11:40:11.996Z,50.23
2023-05-14T11:42:38.892Z,51.88
2023-05-14T11:45:06.222Z,51.37
2023-05-14T11:47:32.841Z,51.38
2023-05-14T11:50:01.041Z,50.99
2023-05-14T11:52:27.640Z,51.48
2023-05-14T11:54:54.068Z,50.88
2023-05-14T11:57:21.811Z,50.50
2023-05-14T11:59:49.715Z,50.80
2023-05-14T12:02:18.380Z,52.02
2023-05-14T12:04:49.503Z,49.47
2023-05-14T12:07:16.625Z,49.00
2023-05-14T12:09:51.493Z,52.50
2023-05-14T12:12:20.343Z,50.05
2023-05-14T12:14:47.652Z,49.42
2023-05-14T12:17:22.708Z,49.01
2023-05-14T12:19:51.271Z,49.67
2023-05-14T12:22:19.909Z,51.21
2023-05-14T12:24:54.470Z,51.97
2023-05-14T12:27:24.965Z,49.95
2023-05-14T12:30:09.133Z,51.81
2023-05-14T12:32:42.965Z,51.92
2023-05-14T12:35:10.181Z,51.25
2023-05-14T12:37:37.586Z,51.68
2023-05-14T12:40:08.934Z,52.09
2023-05-14T12:42:35.524Z,51.12
2023-05-14T12:45:05.378Z,50.53
2023-05-14T12:47:32.463Z,51.29
2023-05-14T12:49:59.002Z,52.27
2023-05-14T12:52:36.615Z,51.75
2023-05-14T12:55:05.314Z,50.15
2023-05-14T12:57:32.255Z,50.04
2023-05-14T12:59:58.894Z,52.18
2023-05-14T13:02:25.502Z,50.72
2023-05-14T13:04:51.920Z,51.44
2023-05-14T13:07:18.431Z,51.21
2023-05-14T13:09:44.887Z,51.45
2023-05-14T13:12:11.350Z,52.78
2023-05-14T13:14:37.760Z,53.06
2023-05-14T13:17:04.848Z,53.17
2023-05-14T13:19:31.704Z,51.93
2023-05-14T13:21:58.089Z,52.92
2023-05-14T13:24:25.067Z,52.06
2023-05-14T13:26:51.435Z,51.29
2023-05-14T13:29:17.802Z,52.22
2023-05-14T13:31:44.306Z,52.02
2023-05-14T13:34:10.733Z,51.79
2023-05-14T13:36:39.641Z,52.08
2023-05-14T13:39:07.263Z,50.91
2023-05-14T13:41:35.696Z,51.54
2023-05-14T13:44:02.124Z,51.29
2023-05-14T13:46:28.873Z,51.67
2023-05-14T13:48:55.343Z,51.74
2023-05-14T13:51:23.572Z,51.42
2023-05-14T13:53:50.167Z,50.81
2023-05-14T13:56:16.589Z,50.77
2023-05-14T13:58:43.057Z,51.47
2023-05-14T14:01:09.488Z,51.18
2023-05-14T14:03:35.955Z,51.65
2023-05-14T14:06:02.401Z,51.73
2023-05-14T14:08:29.026Z,51.09
2023-05-14T14:10:55.776Z,51.81
2023-05-14T14:13:22.737Z,51.54
2023-05-14T14:15:49.953Z,50.64
2023-05-14T14:18:16.552Z,51.36
2023-05-14T14:20:43.043Z,51.13
2023-05-14T14:23:09.523Z,50.85
2023-05-14T14:25:35.936Z,49.67
2023-05-14T14:28:02.406Z,50.18
2023-05-14T14:30:28.881Z,51.64
2023-05-14T14:32:55.760Z,50.41
2023-05-14T14:35:23.351Z,49.99
2023-05-14T14:37:52.217Z,49.33
2023-05-14T14:40:18.831Z,47.77
2023-05-14T14:42:45.559Z,49.49
2023-05-14T14:45:12.466Z,49.05
2023-05-14T14:47:42.736Z,47.37
2023-05-14T14:50:10.024Z,46.75
2023-05-14T14:52:36.663Z,48.07
2023-05-14T14:55:03.265Z,45.68
2023-05-14T14:57:29.641Z,46.94
2023-05-14T14:59:56.135Z,47.08
2023-05-14T15:02:22.884Z,47.12
2023-05-14T15:04:49.359Z,46.51
2023-05-14T15:07:20.232Z,49.04
2023-05-14T15:09:46.630Z,49.56
2023-05-14T15:12:14.286Z,48.46
2023-05-14T15:14:40.653Z,48.70
2023-05-14T15:17:07.249Z,49.08
2023-05-14T15:19:33.666Z,48.75
2023-05-14T15:22:00.124Z,49.58
2023-05-14T15:24:26.607Z,48.10
2023-05-14T15:26:53.644Z,49.63
2023-05-14T15:29:20.460Z,50.04
2023-05-14T15:31:47.086Z,48.67
2023-05-14T15:34:13.562Z,49.45
2023-05-14T15:36:40.101Z,50.07
2023-05-14T15:39:06.678Z,49.92
2023-05-14T15:41:34.413Z,48.86
2023-05-14T15:44:00.811Z,49.90
2023-05-14T15:46:27.351Z,50.10
2023-05-14T15:48:53.913Z,48.50
2023-05-14T15:51:20.358Z,50.61
2023-05-14T15:53:46.876Z,49.94
2023-05-14T15:56:13.274Z,50.37
2023-05-14T15:58:39.711Z,49.69
2023-05-14T16:01:06.120Z,49.66
2023-05-14T16:03:32.680Z,50.27
2023-05-14T16:05:59.686Z,51.04
2023-05-14T16:08:26.170Z,52.26
2023-05-14T16:10:52.646Z,52.45
2023-05-14T16:13:19.578Z,52.55
2023-05-14T16:15:46.513Z,52.12
2023-05-14T16:18:12.952Z,51.12
2023-05-14T16:20:39.340Z,51.59
2023-05-14T16:23:05.766Z,51.89
2023-05-14T16:25:32.204Z,52.84
2023-05-14T16:27:58.645Z,53.12
2023-05-14T16:30:25.312Z,54.23
2023-05-14T16:32:51.991Z,55.86
2023-05-14T16:35:18.535Z,55.99
2023-05-14T16:37:45.011Z,55.71
2023-05-14T16:40:12.164Z,55.24
2023-05-14T16:42:39.082Z,55.33
2023-05-14T16:45:06.280Z,54.97
2023-05-14T16:47:32.753Z,53.12
2023-05-14T16:49:59.171Z,54.44
2023-05-14T16:52:25.793Z,54.30
2023-05-14T16:54:52.196Z,54.76
2023-05-14T16:57:18.668Z,54.33
2023-05-14T16:59:45.202Z,55.48
2023-05-14T17:02:11.616Z,55.82
2023-05-14T17:04:41.966Z,55.69
2023-05-14T17:07:08.682Z,55.72
2023-05-14T17:09:35.773Z,56.22
2023-05-14T17:12:02.190Z,56.96
2023-05-14T17:14:28.596Z,57.23
2023-05-14T17:16:55.852Z,59.46
2023-05-14T17:19:22.540Z,60.38
2023-05-14T17:21:49.042Z,61.66
2023-05-14T17:24:15.800Z,62.49
2023-05-14T17:26:42.174Z,63.19
2023-05-14T17:29:08.532Z,63.40
2023-05-14T17:31:35.046Z,63.64
2023-05-14T17:34:01.515Z,64.00
2023-05-14T17:36:28.647Z,64.50
2023-05-14T17:38:55.179Z,63.55
2023-05-14T17:41:21.640Z,64.24
2023-05-14T17:43:48.101Z,64.55
2023-05-14T17:46:14.500Z,64.30
2023-05-14T17:48:40.956Z,63.98
2023-05-14T17:51:07.411Z,64.10
2023-05-14T17:53:33.823Z,64.66
2023-05-14T17:56:00.225Z,64.74
2023-05-14T17:58:26.789Z,65.14
2023-05-14T18:00:53.372Z,65.74
2023-05-14T18:03:20.711Z,65.73
2023-05-14T18:05:47.245Z,66.75
2023-05-14T18:08:14.476Z,67.02
2023-05-14T18:10:41.005Z,67.06
2023-05-14T18:13:07.511Z,67.02
2023-05-14T18:15:35.905Z,67.31
2023-05-14T18:18:02.492Z,68.25
2023-05-14T18:20:29.031Z,68.10
2023-05-14T18:22:55.548Z,68.13
2023-05-14T18:25:22.063Z,68.85
2023-05-14T18:27:48.609Z,69.58
2023-05-14T18:30:15.949Z,69.59
2023-05-14T18:32:44.686Z,69.54
2023-05-14T18:35:11.838Z,69.39
2023-05-14T18:37:38.560Z,69.50
2023-05-14T18:40:06.925Z,69.33
2023-05-14T18:42:34.143Z,69.56
2023-05-14T18:45:01.493Z,69.34
2023-05-14T18:47:28.163Z,69.02
2023-05-14T18:49:57.668Z,69.05
2023-05-14T18:52:24.538Z,69.28
2023-05-14T18:54:50.983Z,69.26
2023-05-14T18:57:17.436Z,69.41
2023-05-14T18:59:44.020Z,69.65
2023-05-14T19:02:10.836Z,70.04
2023-05-14T19:04:50.731Z,70.14
2023-05-14T19:07:18.860Z,69.95
2023-05-14T19:09:45.483Z,69.92
2023-05-14T19:12:12.355Z,69.42
2023-05-14T19:14:38.769Z,69.25
2023-05-14T19:17:05.767Z,69.82
2023-05-14T19:19:32.709Z,70.34
2023-05-14T19:21:59.111Z,71.21
2023-05-14T19:24:25.821Z,71.38
2023-05-14T19:26:52.394Z,71.83
2023-05-14T19:29:18.882Z,72.73
2023-05-14T19:31:45.366Z,72.87
2023-05-14T19:34:11.787Z,73.13
2023-05-14T19:36:38.250Z,72.51
2023-05-14T19:39:04.755Z,72.28
2023-05-14T19:41:31.546Z,71.99
2023-05-14T19:43:58.049Z,71.81
2023-05-14T19:46:24.584Z,71.81
2023-05-14T19:48:51.057Z,71.87
2023-05-14T19:51:17.429Z,72.25
2023-05-14T19:53:43.891Z,72.57
2023-05-14T19:56:10.474Z,72.96
2023-05-14T19:58:36.951Z,73.17
2023-05-14T20:01:04.319Z,73.51
2023-05-14T20:03:30.862Z,73.67
2023-05-14T20:05:57.962Z,73.81
2023-05-14T20:08:24.905Z,74.22
2023-05-14T20:10:51.457Z,73.92
2023-05-14T20:13:17.829Z,74.35
2023-05-14T20:15:44.242Z,74.86
2023-05-14T20:18:10.680Z,75.39
2023-05-14T20:20:37.375Z,75.34
2023-05-14T20:23:03.825Z,75.86
2023-05-14T20:25:32.572Z,75.68
2023-05-14T20:28:00.357Z,75.73
2023-05-14T20:30:27.593Z,75.66
2023-05-14T20:32:54.074Z,75.71
2023-05-14T20:35:20.532Z,75.84
2023-05-14T20:37:47.248Z,75.87
2023-05-14T20:40:13.787Z,76.07
2023-05-14T20:42:40.492Z,76.23
2023-05-14T20:45:07.338Z,75.99
2023-05-14T20:47:34.152Z,76.14
2023-05-14T20:50:01.247Z,76.36
2023-05-14T20:52:27.807Z,76.19
2023-05-14T20:54:54.258Z,76.26
2023-05-14T20:57:20.741Z,76.28
2023-05-14T20:59:47.560Z,76.63
2023-05-14T21:02:14.058Z,76.64
2023-05-14T21:04:41.034Z,76.68
2023-05-14T21:07:07.552Z,76.83
2023-05-14T21:09:33.985Z,77.13
2023-05-14T21:12:00.514Z,77.49
2023-05-14T21:14:26.891Z,77.15
2023-05-14T21:16:53.463Z,77.41
2023-05-14T21:19:20.072Z,77.31
2023-05-14T21:21:47.359Z,77.46
2023-05-14T21:24:13.898Z,77.34
2023-05-14T21:26:41.389Z,77.58
2023-05-14T21:29:07.804Z,77.37
2023-05-14T21:31:34.281Z,77.36
2023-05-14T21:34:00.802Z,77.53
2023-05-14T21:36:27.293Z,77.87
2023-05-14T21:38:53.885Z,78.25
2023-05-14T21:41:21.102Z,78.33
2023-05-14T21:43:47.588Z,78.38
2023-05-14T21:46:14.055Z,78.66
2023-05-14T21:48:40.577Z,78.98
2023-05-14T21:51:07.098Z,78.86
2023-05-14T21:53:34.640Z,79.11
2023-05-14T21:56:01.112Z,79.24
2023-05-14T21:58:27.724Z,79.40
2023-05-14T22:00:54.203Z,79.46
2023-05-14T22:03:20.831Z,79.44
2023-05-14T22:05:47.800Z,79.67
2023-05-14T22:08:14.298Z,80.06
2023-05-14T22:10:40.735Z,80.05
2023-05-14T22:13:07.115Z,80.42
2023-05-14T22:15:34.349Z,80.63
2023-05-14T22:18:00.931Z,80.70
2023-05-14T22:20:27.367Z,80.66
2023-05-14T22:22:53.953Z,80.91
2023-05-14T22:25:20.411Z,80.92
2023-05-14T22:27:46.814Z,81.10
2023-05-14T22:30:13.271Z,81.33
2023-05-14T22:32:39.732Z,81.38
2023-05-14T22:35:06.330Z,81.55
2023-05-14T22:37:32.722Z,81.42
2023-05-14T22:39:59.121Z,81.60
2023-05-14T22:42:27.186Z,81.74
2023-05-14T22:44:53.700Z,81.88
2023-05-14T22:47:20.217Z,82.08
2023-05-14T22:49:46.772Z,81.92
2023-05-14T22:52:13.171Z,82.02
2023-05-14T22:54:39.661Z,82.28
2023-05-14T22:57:06.621Z,82.62
2023-05-14T22:59:33.271Z,82.29
2023-05-14T23:01:59.743Z,82.53
2023-05-14T23:04:26.297Z,82.49
2023-05-14T23:06:52.843Z,82.77
2023-05-14T23:09:19.223Z,82.58
2023-05-14T23:11:46.184Z,83.11
2023-05-14T23:14:12.620Z,83.02
2023-05-14T23:16:39.441Z,82.96
2023-05-14T23:19:06.084Z,83.37
2023-05-14T23:21:33.018Z,83.28
2023-05-14T23:23:59.514Z,83.19
2023-05-14T23:26:26.082Z,83.12
2023-05-14T23:28:52.505Z,83.20
2023-05-14T23:31:18.973Z,83.06
2023-05-14T23:33:46.359Z,83.32
2023-05-14T23:36:12.957Z,83.25
2023-05-14T23:38:40.630Z,83.53
2023-05-14T23:41:07.102Z,83.66
2023-05-14T23:43:33.773Z,83.59
2023-05-14T23:46:00.920Z,83.49
2023-05-14T23:48:27.422Z,83.71
2023-05-14T23:50:53.832Z,83.64
2023-05-14T23:53:20.427Z,83.60
2023-05-14T23:55:46.957Z,83.71
2023-05-14T23:58:13.460Z,83.83
